createdAt,value
2022-09-15T00:00:28.072Z,2.30
2022-09-15T00:02:00.876Z,2.70
2022-09-15T00:03:32.991Z,2.53
2022-09-15T00:05:06.421Z,2.70
2022-09-15T00:06:39.191Z,2.60
2022-09-15T00:08:12.969Z,2.43
2022-09-15T00:09:45.643Z,2.20
2022-09-15T00:11:21.070Z,2.27
2022-09-15T00:12:53.766Z,2.60
2022-09-15T00:14:27.796Z,2.40
2022-09-15T00:15:59.536Z,2.10
2022-09-15T00:17:32.395Z,2.30
2022-09-15T00:19:07.210Z,2.40
2022-09-15T00:20:41.402Z,2.70
2022-09-15T00:22:14.627Z,2.47
2022-09-15T00:23:48.066Z,2.47
2022-09-15T00:25:20.758Z,2.30
2022-09-15T00:26:53.493Z,2.50
2022-09-15T00:28:26.332Z,2.80
2022-09-15T00:30:00.483Z,2.43
2022-09-15T00:31:33.885Z,2.30
2022-09-15T00:33:06.552Z,2.30
2022-09-15T00:34:39.261Z,2.50
2022-09-15T00:36:14.115Z,2.27
2022-09-15T00:37:46.780Z,2.57
2022-09-15T00:39:19.478Z,2.50
2022-09-15T00:40:53.954Z,2.30
2022-09-15T00:42:27.121Z,2.40
2022-09-15T00:44:00.643Z,2.63
2022-09-15T00:45:34.708Z,2.17
2022-09-15T00:47:19.373Z,2.40
2022-09-15T00:48:58.803Z,2.40
2022-09-15T00:50:34.147Z,2.47
2022-09-15T00:52:11.093Z,2.53
2022-09-15T00:53:45.226Z,2.40
2022-09-15T00:55:20.539Z,2.60
2022-09-15T00:56:56.097Z,2.90
2022-09-15T00:58:38.797Z,2.43
2022-09-15T01:00:15.121Z,2.20
2022-09-15T01:01:56.116Z,2.67
2022-09-15T01:03:32.538Z,2.30
2022-09-15T01:05:10.480Z,2.60
2022-09-15T01:06:48.865Z,2.23
2022-09-15T01:08:30.542Z,2.70
2022-09-15T01:10:06.672Z,2.50
2022-09-15T01:11:40.817Z,2.87
2022-09-15T01:13:15.590Z,2.77
2022-09-15T01:14:48.328Z,2.50
2022-09-15T01:16:30.052Z,3.00
2022-09-15T01:18:12.545Z,2.70
2022-09-15T01:20:20.777Z,3.10
2022-09-15T01:22:00.512Z,2.70
2022-09-15T01:24:10.800Z,2.87
2022-09-15T01:26:08.509Z,3.00
2022-09-15T01:28:01.466Z,2.50
2022-09-15T01:30:10.063Z,2.70
2022-09-15T01:32:04.711Z,2.80
2022-09-15T01:33:48.394Z,3.03
2022-09-15T01:35:27.950Z,2.67
2022-09-15T01:37:04.205Z,2.83
2022-09-15T01:38:46.536Z,2.97
2022-09-15T01:40:21.232Z,2.60
2022-09-15T01:41:57.768Z,2.73
2022-09-15T01:43:31.701Z,2.60
2022-09-15T01:45:09.661Z,2.63
2022-09-15T01:46:47.711Z,2.60
2022-09-15T01:48:24.274Z,2.83
2022-09-15T01:50:01.901Z,2.50
2022-09-15T01:51:36.304Z,2.80
2022-09-15T01:53:11.442Z,2.30
2022-09-15T01:54:49.007Z,2.20
2022-09-15T01:56:21.779Z,2.27
2022-09-15T01:57:53.516Z,2.30
2022-09-15T01:59:26.477Z,2.20
2022-09-15T02:01:04.439Z,2.40
2022-09-15T02:02:43.943Z,2.37
2022-09-15T02:04:22.208Z,2.33
2022-09-15T02:06:02.688Z,2.20
2022-09-15T02:07:45.377Z,2.17
2022-09-15T02:09:23.812Z,2.47
2022-09-15T02:11:03.236Z,2.57
2022-09-15T02:12:44.182Z,2.60
2022-09-15T02:14:21.277Z,2.63
2022-09-15T02:15:58.310Z,2.83
2022-09-15T02:17:36.091Z,3.17
2022-09-15T02:19:23.222Z,2.97
2022-09-15T02:21:10.053Z,2.33
2022-09-15T02:22:47.600Z,2.40
2022-09-15T02:24:27.382Z,2.20
2022-09-15T02:26:04.961Z,2.20
2022-09-15T02:27:44.219Z,1.90
2022-09-15T02:29:20.712Z,1.90
2022-09-15T02:30:57.769Z,1.47
2022-09-15T02:32:32.937Z,1.70
2022-09-15T02:34:12.113Z,1.80
2022-09-15T02:35:46.674Z,1.53
2022-09-15T02:37:21.015Z,1.50
2022-09-15T02:38:59.307Z,1.63
2022-09-15T02:40:33.115Z,1.30
2022-09-15T02:42:06.221Z,1.20
2022-09-15T02:43:46.004Z,1.30
2022-09-15T02:45:20.096Z,1.40
2022-09-15T02:46:53.243Z,1.50
2022-09-15T02:48:26.173Z,1.60
2022-09-15T02:49:58.850Z,1.43
2022-09-15T02:51:32.869Z,1.60
2022-09-15T02:53:06.085Z,1.33
2022-09-15T02:54:38.833Z,1.57
2022-09-15T02:56:11.505Z,1.40
2022-09-15T02:57:44.206Z,1.30
2022-09-15T02:59:16.896Z,1.50
2022-09-15T03:00:48.669Z,1.67
2022-09-15T03:02:21.453Z,1.40
2022-09-15T03:03:54.185Z,1.50
2022-09-15T03:05:27.714Z,1.70
2022-09-15T03:07:01.726Z,1.67
2022-09-15T03:08:34.423Z,1.40
2022-09-15T03:10:09.855Z,1.20
2022-09-15T03:11:42.529Z,1.40
2022-09-15T03:13:15.212Z,1.33
2022-09-15T03:14:46.968Z,1.60
2022-09-15T03:16:19.707Z,1.47
2022-09-15T03:17:53.156Z,1.57
2022-09-15T03:19:26.033Z,1.70
2022-09-15T03:20:58.728Z,1.83
2022-09-15T03:22:32.113Z,1.70
2022-09-15T03:24:05.343Z,1.87
2022-09-15T03:25:38.036Z,1.60
2022-09-15T03:27:09.778Z,1.57
2022-09-15T03:28:42.473Z,2.00
2022-09-15T03:30:15.533Z,1.60
2022-09-15T03:31:49.049Z,1.40
2022-09-15T03:33:21.769Z,1.50
2022-09-15T03:34:58.382Z,1.77
2022-09-15T03:36:31.609Z,1.50
2022-09-15T03:38:05.648Z,1.60
2022-09-15T03:39:38.762Z,1.70
2022-09-15T03:41:12.823Z,1.60
2022-09-15T03:42:45.494Z,1.60
2022-09-15T03:44:17.218Z,2.10
2022-09-15T03:45:49.963Z,2.30
2022-09-15T03:47:22.680Z,2.20
2022-09-15T03:48:55.353Z,2.83
2022-09-15T03:50:28.050Z,2.90
2022-09-15T03:52:00.744Z,3.17
2022-09-15T03:53:35.721Z,3.90
2022-09-15T03:55:09.116Z,4.50
2022-09-15T03:56:41.772Z,5.13
2022-09-15T03:58:14.663Z,5.30
2022-09-15T03:59:47.540Z,5.37
2022-09-15T04:01:19.835Z,5.73
2022-09-15T04:02:52.581Z,6.20
2022-09-15T04:04:25.270Z,6.90
2022-09-15T04:05:57.984Z,7.23
2022-09-15T04:07:30.657Z,7.17
2022-09-15T04:09:05.184Z,7.33
2022-09-15T04:10:39.282Z,7.53
2022-09-15T04:12:11.952Z,8.50
2022-09-15T04:13:45.058Z,8.93
2022-09-15T04:15:17.773Z,10.10
2022-09-15T04:16:50.722Z,9.77
2022-09-15T04:18:23.384Z,10.17
2022-09-15T04:19:55.367Z,9.80
2022-09-15T04:21:28.051Z,9.80
2022-09-15T04:23:00.767Z,10.37
2022-09-15T04:24:34.801Z,9.87
2022-09-15T04:26:10.038Z,11.80
2022-09-15T04:27:42.804Z,11.40
2022-09-15T04:29:17.448Z,13.43
2022-09-15T04:30:49.187Z,12.33
2022-09-15T04:32:22.366Z,11.00
2022-09-15T04:33:57.057Z,11.53
2022-09-15T04:35:28.820Z,13.90
2022-09-15T04:37:02.478Z,14.37
2022-09-15T04:38:36.186Z,14.17
2022-09-15T04:40:11.296Z,14.00
2022-09-15T04:41:44.216Z,13.23
2022-09-15T04:43:16.918Z,13.43
2022-09-15T04:44:49.612Z,15.50
2022-09-15T04:46:22.609Z,16.43
2022-09-15T04:47:54.433Z,15.60
2022-09-15T04:49:28.574Z,17.77
2022-09-15T04:51:05.158Z,18.70
2022-09-15T04:52:37.831Z,17.23
2022-09-15T04:54:09.553Z,19.00
2022-09-15T04:55:44.592Z,17.37
2022-09-15T04:57:17.261Z,16.93
2022-09-15T04:58:50.472Z,17.03
2022-09-15T05:00:23.166Z,17.63
2022-09-15T05:01:55.390Z,17.47
2022-09-15T05:03:28.247Z,18.50
2022-09-15T05:05:02.042Z,16.90
2022-09-15T05:06:35.653Z,16.67
2022-09-15T05:08:08.059Z,15.77
2022-09-15T05:09:40.720Z,15.80
2022-09-15T05:11:14.737Z,14.07
2022-09-15T05:12:47.721Z,14.33
2022-09-15T05:14:20.577Z,12.70
2022-09-15T05:15:52.307Z,12.60
2022-09-15T05:17:26.833Z,11.67
2022-09-15T05:19:01.330Z,10.60
2022-09-15T05:20:34.300Z,10.07
2022-09-15T05:22:06.973Z,9.77
2022-09-15T05:23:39.794Z,9.10
2022-09-15T05:25:13.063Z,8.60
2022-09-15T05:26:47.069Z,8.87
2022-09-15T05:28:18.794Z,8.30
2022-09-15T05:30:04.325Z,8.23
2022-09-15T05:31:44.175Z,8.17
2022-09-15T05:33:16.890Z,7.67
2022-09-15T05:34:50.112Z,8.63
2022-09-15T05:36:25.073Z,7.60
2022-09-15T05:37:58.682Z,7.83
2022-09-15T05:39:31.344Z,7.70
2022-09-15T05:41:04.862Z,8.13
2022-09-15T05:42:38.878Z,8.67
2022-09-15T05:44:12.028Z,8.40
2022-09-15T05:45:43.876Z,7.63
2022-09-15T05:47:17.200Z,8.00
2022-09-15T05:48:49.870Z,7.87
2022-09-15T05:50:22.536Z,8.07
2022-09-15T05:51:55.214Z,7.50
2022-09-15T05:53:28.468Z,8.10
2022-09-15T05:55:01.140Z,8.53
2022-09-15T05:56:34.008Z,8.40
2022-09-15T05:58:08.175Z,8.07
2022-09-15T05:59:41.972Z,7.97
2022-09-15T06:01:15.897Z,9.10
2022-09-15T06:02:48.617Z,7.90
2022-09-15T06:04:21.347Z,7.30
2022-09-15T06:05:59.982Z,7.77
2022-09-15T06:07:32.652Z,7.17
2022-09-15T06:09:07.162Z,7.60
2022-09-15T06:10:39.891Z,7.27
2022-09-15T06:12:12.601Z,6.50
2022-09-15T06:13:47.634Z,6.63
2022-09-15T06:15:19.370Z,6.97
2022-09-15T06:16:52.040Z,6.83
2022-09-15T06:18:23.949Z,7.43
2022-09-15T06:19:56.892Z,7.33
2022-09-15T06:21:31.316Z,6.90
2022-09-15T06:23:04.016Z,6.47
2022-09-15T06:24:36.701Z,6.53
2022-09-15T06:26:11.216Z,6.37
2022-09-15T06:27:43.898Z,6.20
2022-09-15T06:29:17.899Z,6.67
2022-09-15T06:30:49.647Z,6.30
2022-09-15T06:32:22.327Z,5.97
2022-09-15T06:33:58.443Z,6.63
2022-09-15T06:35:31.135Z,6.10
2022-09-15T06:37:03.854Z,6.00
2022-09-15T06:38:36.529Z,5.43
2022-09-15T06:40:10.369Z,5.53
2022-09-15T06:42:01.201Z,5.43
2022-09-15T06:43:36.049Z,6.70
2022-09-15T06:45:11.049Z,5.90
2022-09-15T06:46:43.779Z,6.20
2022-09-15T06:48:24.552Z,6.57
2022-09-15T06:49:59.575Z,5.90
2022-09-15T06:51:35.481Z,5.87
2022-09-15T06:53:08.185Z,6.87
2022-09-15T06:54:40.863Z,6.33
2022-09-15T06:56:15.840Z,6.03
2022-09-15T06:57:48.514Z,6.10
2022-09-15T06:59:23.794Z,6.60
2022-09-15T07:01:01.677Z,5.20
2022-09-15T07:02:34.478Z,5.70
2022-09-15T07:04:09.632Z,5.70
2022-09-15T07:05:44.058Z,5.43
2022-09-15T07:07:16.725Z,5.33
2022-09-15T07:08:50.510Z,5.67
2022-09-15T07:10:23.203Z,5.70
2022-09-15T07:11:55.855Z,6.27
2022-09-15T07:13:28.656Z,5.57
2022-09-15T07:15:01.332Z,5.20
2022-09-15T07:16:35.440Z,6.10
2022-09-15T07:18:08.263Z,5.13
2022-09-15T07:19:41.473Z,5.57
2022-09-15T07:21:16.394Z,4.40
2022-09-15T07:22:49.209Z,5.00
2022-09-15T07:24:21.964Z,4.60
2022-09-15T07:26:04.731Z,3.90
2022-09-15T07:27:37.391Z,3.67
2022-09-15T07:29:10.556Z,3.87
2022-09-15T07:30:43.885Z,4.03
2022-09-15T07:32:17.909Z,3.80
2022-09-15T07:33:50.658Z,3.57
2022-09-15T07:35:23.346Z,3.83
2022-09-15T07:36:56.008Z,2.73
2022-09-15T07:38:28.798Z,2.80
2022-09-15T07:40:01.680Z,3.20
2022-09-15T07:41:34.631Z,3.00
2022-09-15T07:43:07.787Z,3.03
2022-09-15T07:44:40.479Z,3.53
2022-09-15T07:46:13.424Z,3.60
2022-09-15T07:47:47.496Z,2.87
2022-09-15T07:49:20.169Z,3.00
2022-09-15T07:50:52.858Z,3.30
2022-09-15T07:52:25.554Z,3.27
2022-09-15T07:53:58.380Z,2.93
2022-09-15T07:55:31.090Z,3.40
2022-09-15T07:57:05.785Z,3.07
2022-09-15T07:58:38.477Z,3.37
2022-09-15T08:00:12.449Z,3.00
2022-09-15T08:01:45.179Z,3.00
2022-09-15T08:03:19.427Z,3.20
2022-09-15T08:04:53.018Z,3.30
2022-09-15T08:06:28.789Z,3.27
2022-09-15T08:08:01.460Z,3.27
2022-09-15T08:09:34.160Z,3.10
2022-09-15T08:11:07.947Z,3.30
2022-09-15T08:12:41.323Z,3.20
2022-09-15T08:14:14.145Z,3.80
2022-09-15T08:15:46.950Z,3.37
2022-09-15T08:17:19.849Z,3.30
2022-09-15T08:18:55.253Z,3.50
2022-09-15T08:20:27.927Z,3.13
2022-09-15T08:22:01.642Z,3.27
2022-09-15T08:23:34.840Z,3.37
2022-09-15T08:25:08.477Z,3.27
2022-09-15T08:26:42.085Z,3.47
2022-09-15T08:28:14.752Z,3.50
2022-09-15T08:29:47.427Z,3.27
2022-09-15T08:31:20.146Z,3.60
2022-09-15T08:32:53.052Z,4.07
2022-09-15T08:34:28.323Z,4.07
2022-09-15T08:36:03.014Z,3.70
2022-09-15T08:37:35.748Z,3.70
2022-09-15T08:39:08.849Z,3.63
2022-09-15T08:40:46.765Z,3.60
2022-09-15T08:42:21.926Z,3.67
2022-09-15T08:43:59.564Z,3.23
2022-09-15T08:45:41.910Z,3.70
2022-09-15T08:47:18.477Z,3.60
2022-09-15T08:49:02.757Z,3.90
2022-09-15T08:50:43.124Z,3.80
2022-09-15T08:52:22.797Z,3.80
2022-09-15T08:53:59.654Z,3.80
2022-09-15T08:55:38.792Z,4.00
2022-09-15T08:57:17.709Z,3.63
2022-09-15T08:58:50.489Z,3.57
2022-09-15T09:00:23.181Z,3.70
2022-09-15T09:02:30.453Z,4.23
2022-09-15T09:04:19.060Z,3.80
2022-09-15T09:05:59.025Z,3.83
2022-09-15T09:07:53.793Z,3.77
2022-09-15T09:09:35.468Z,3.93
2022-09-15T09:11:18.004Z,3.97
2022-09-15T09:13:06.312Z,4.33
2022-09-15T09:14:50.501Z,4.80
2022-09-15T09:16:40.820Z,4.80
2022-09-15T09:18:46.973Z,4.97
2022-09-15T09:20:45.541Z,4.50
2022-09-15T09:22:23.838Z,4.30
2022-09-15T09:24:05.080Z,4.10
2022-09-15T09:25:37.238Z,4.10
2022-09-15T09:27:14.079Z,4.60
2022-09-15T09:28:50.761Z,4.70
2022-09-15T09:30:25.151Z,4.87
2022-09-15T09:31:59.256Z,4.73
2022-09-15T09:33:41.843Z,4.53
2022-09-15T09:35:25.946Z,4.50
2022-09-15T09:37:00.663Z,4.47
2022-09-15T09:38:38.744Z,4.20
2022-09-15T09:40:15.489Z,4.43
2022-09-15T09:41:48.788Z,5.93
2022-09-15T09:43:21.608Z,5.27
2022-09-15T09:44:54.308Z,6.03
2022-09-15T09:46:27.176Z,5.70
2022-09-15T09:48:03.023Z,5.77
2022-09-15T09:49:39.871Z,5.53
2022-09-15T09:51:31.077Z,6.00
2022-09-15T09:53:20.019Z,6.80
2022-09-15T09:55:01.457Z,7.10
2022-09-15T09:56:34.507Z,8.10
2022-09-15T09:58:14.454Z,7.97
2022-09-15T09:59:48.093Z,8.13
2022-09-15T10:01:23.090Z,7.67
2022-09-15T10:02:55.816Z,7.97
2022-09-15T10:04:29.419Z,7.50
2022-09-15T10:06:05.935Z,8.13
2022-09-15T10:07:43.599Z,7.90
2022-09-15T10:09:18.450Z,7.70
2022-09-15T10:10:53.747Z,7.33
2022-09-15T10:12:31.691Z,7.70
2022-09-15T10:14:03.598Z,7.60
2022-09-15T10:15:37.874Z,7.70
2022-09-15T10:17:13.709Z,7.07
2022-09-15T10:18:54.025Z,7.20
2022-09-15T10:20:32.514Z,7.80
2022-09-15T10:22:05.666Z,7.73
2022-09-15T10:23:38.514Z,8.60
2022-09-15T10:25:44.542Z,9.17
2022-09-15T10:27:33.938Z,9.60
2022-09-15T10:29:14.767Z,8.63
2022-09-15T10:31:10.782Z,8.17
2022-09-15T10:32:43.725Z,7.93
2022-09-15T10:34:27.828Z,8.73
2022-09-15T10:36:07.488Z,9.03
2022-09-15T10:37:56.022Z,8.80
2022-09-15T10:39:38.776Z,8.77
2022-09-15T10:41:21.599Z,8.43
2022-09-15T10:43:00.718Z,8.67
2022-09-15T10:44:41.618Z,7.93
2022-09-15T10:46:21.474Z,8.17
2022-09-15T10:48:11.985Z,8.43
2022-09-15T10:49:57.110Z,9.17
2022-09-15T10:51:46.337Z,9.10
2022-09-15T10:53:29.111Z,8.87
2022-09-15T10:55:27.768Z,8.90
2022-09-15T10:57:24.568Z,8.73
2022-09-15T10:59:14.569Z,8.90
2022-09-15T11:00:54.092Z,8.97
2022-09-15T11:02:59.371Z,8.97
2022-09-15T11:05:12.333Z,9.20
2022-09-15T11:06:52.989Z,9.30
2022-09-15T11:08:55.995Z,9.13
2022-09-15T11:10:35.297Z,8.50
2022-09-15T11:12:29.302Z,8.27
2022-09-15T11:14:17.770Z,8.00
2022-09-15T11:15:59.474Z,8.13
2022-09-15T11:17:55.186Z,8.40
2022-09-15T11:19:47.281Z,7.77
2022-09-15T11:21:27.285Z,7.40
2022-09-15T11:23:05.372Z,7.67
2022-09-15T11:24:44.204Z,7.70
2022-09-15T11:26:21.689Z,7.53
2022-09-15T11:27:58.701Z,7.63
2022-09-15T11:29:40.273Z,7.80
2022-09-15T11:31:17.819Z,8.53
2022-09-15T11:32:58.261Z,7.43
2022-09-15T11:34:37.284Z,8.13
2022-09-15T11:36:14.510Z,7.83
2022-09-15T11:37:51.557Z,8.53
2022-09-15T11:39:25.758Z,8.70
2022-09-15T11:41:09.745Z,8.87
2022-09-15T11:42:47.526Z,7.57
2022-09-15T11:44:24.390Z,7.80
2022-09-15T11:46:02.586Z,7.47
2022-09-15T11:47:40.837Z,7.80
2022-09-15T11:49:19.109Z,7.90
2022-09-15T11:50:55.489Z,7.60
2022-09-15T11:52:45.785Z,7.73
2022-09-15T11:54:24.035Z,7.83
2022-09-15T11:56:06.710Z,7.47
2022-09-15T11:57:45.967Z,7.80
2022-09-15T11:59:27.491Z,7.27
2022-09-15T12:01:05.144Z,7.20
2022-09-15T12:02:44.843Z,7.47
2022-09-15T12:04:23.048Z,6.70
2022-09-15T12:05:58.825Z,7.87
2022-09-15T12:07:35.334Z,7.23
2022-09-15T12:09:12.979Z,7.17
2022-09-15T12:10:50.176Z,6.63
2022-09-15T12:12:26.958Z,6.17
2022-09-15T12:14:03.660Z,6.43
2022-09-15T12:15:36.391Z,6.20
2022-09-15T12:17:16.294Z,5.57
2022-09-15T12:18:53.273Z,5.27
2022-09-15T12:20:31.272Z,5.80
2022-09-15T12:22:13.401Z,4.67
2022-09-15T12:23:51.543Z,5.23
2022-09-15T12:25:29.389Z,5.20
2022-09-15T12:27:02.663Z,5.13
2022-09-15T12:28:39.025Z,5.03
2022-09-15T12:30:40.375Z,5.03
2022-09-15T12:32:24.026Z,4.13
2022-09-15T12:33:59.775Z,2.90
2022-09-15T12:35:33.475Z,3.00
2022-09-15T12:37:12.266Z,2.50
2022-09-15T12:38:49.113Z,2.37
2022-09-15T12:40:36.082Z,2.40
2022-09-15T12:42:18.520Z,2.90
2022-09-15T12:43:54.173Z,3.07
2022-09-15T12:45:29.617Z,2.60
2022-09-15T12:47:02.832Z,2.87
2022-09-15T12:48:37.782Z,3.17
2022-09-15T12:50:24.365Z,3.43
2022-09-15T12:51:58.553Z,3.50
2022-09-15T12:55:20.045Z,3.80
2022-09-15T12:56:54.285Z,3.60
2022-09-15T12:58:34.379Z,3.80
2022-09-15T13:00:32.365Z,3.53
2022-09-15T13:02:05.143Z,2.83
2022-09-15T13:04:11.397Z,3.40
2022-09-15T13:06:17.036Z,2.97
2022-09-15T13:08:00.544Z,3.10
2022-09-15T13:09:44.859Z,3.40
2022-09-15T13:11:31.589Z,2.90
2022-09-15T13:13:33.407Z,3.30
2022-09-15T13:15:13.257Z,3.00
2022-09-15T13:16:52.720Z,3.10
2022-09-15T13:18:27.116Z,3.17
2022-09-15T13:20:08.516Z,2.90
2022-09-15T13:21:45.626Z,3.30
2022-09-15T13:23:24.904Z,2.90
2022-09-15T13:25:02.390Z,3.27
2022-09-15T13:26:37.465Z,3.20
2022-09-15T13:28:13.376Z,2.67
2022-09-15T13:29:49.734Z,2.73
2022-09-15T13:31:32.896Z,3.00
2022-09-15T13:33:20.126Z,2.90
2022-09-15T13:35:21.132Z,3.13
2022-09-15T13:39:20.983Z,2.70
2022-09-15T13:41:23.301Z,3.00
2022-09-15T13:43:21.695Z,2.90
2022-09-15T13:45:21.961Z,2.70
2022-09-15T13:47:09.377Z,2.60
2022-09-15T13:48:50.633Z,2.60
2022-09-15T13:50:28.812Z,2.70
2022-09-15T13:52:08.883Z,2.60
2022-09-15T13:53:48.273Z,2.20
2022-09-15T13:55:26.236Z,2.50
2022-09-15T13:57:00.953Z,2.50
2022-09-15T13:59:06.713Z,2.03
2022-09-15T14:00:29.604Z,2.57
2022-09-15T14:02:08.899Z,2.17
2022-09-15T14:03:45.932Z,2.43
2022-09-15T14:05:20.013Z,2.17
2022-09-15T14:06:58.545Z,2.00
2022-09-15T14:08:35.529Z,2.00
2022-09-15T14:10:18.466Z,2.70
2022-09-15T14:11:55.180Z,2.27
2022-09-15T14:13:30.045Z,2.20
2022-09-15T14:15:07.805Z,2.40
2022-09-15T14:16:40.899Z,2.23
2022-09-15T14:18:21.112Z,2.20
2022-09-15T14:19:55.486Z,2.50
2022-09-15T14:21:30.605Z,2.30
2022-09-15T14:23:03.407Z,2.60
2022-09-15T14:24:41.332Z,2.50
2022-09-15T14:26:16.861Z,2.10
2022-09-15T14:27:52.636Z,2.30
2022-09-15T14:29:25.943Z,2.07
2022-09-15T14:30:58.154Z,2.50
2022-09-15T14:32:34.880Z,2.13
2022-09-15T14:34:15.544Z,2.53
2022-09-15T14:35:48.318Z,2.30
2022-09-15T14:37:23.848Z,2.30
2022-09-15T14:39:23.673Z,2.20
2022-09-15T14:40:59.333Z,2.20
2022-09-15T14:42:36.315Z,2.30
2022-09-15T14:46:20.808Z,2.20
2022-09-15T14:48:01.212Z,2.70
2022-09-15T14:49:33.992Z,2.43
2022-09-15T14:51:15.740Z,2.50
2022-09-15T14:52:51.770Z,2.67
2022-09-15T14:54:28.777Z,2.47
2022-09-15T14:56:08.438Z,2.40
2022-09-15T14:57:44.999Z,2.60
2022-09-15T14:59:22.885Z,2.43
2022-09-15T15:01:01.378Z,2.70
2022-09-15T15:02:48.327Z,2.73
2022-09-15T15:04:26.823Z,2.40
2022-09-15T15:06:12.759Z,2.60
2022-09-15T15:07:55.506Z,2.67
2022-09-15T15:09:32.778Z,2.90
2022-09-15T15:11:07.581Z,2.33
2022-09-15T15:12:43.016Z,2.60
2022-09-15T15:14:16.415Z,2.60
2022-09-15T15:15:50.755Z,2.40
2022-09-15T15:17:33.020Z,2.60
2022-09-15T15:19:05.804Z,2.60
2022-09-15T15:20:50.346Z,2.57
2022-09-15T15:22:24.501Z,2.40
2022-09-15T15:23:57.603Z,2.57
2022-09-15T15:25:32.736Z,2.57
2022-09-15T15:27:38.572Z,2.27
2022-09-15T15:29:39.620Z,2.43
2022-09-15T15:31:17.334Z,2.27
2022-09-15T15:32:50.643Z,2.40
2022-09-15T15:34:25.699Z,2.53
2022-09-15T15:36:06.569Z,2.33
2022-09-15T15:37:39.309Z,2.37
2022-09-15T15:39:24.504Z,2.40
2022-09-15T15:41:01.726Z,2.07
2022-09-15T15:42:35.224Z,2.20
2022-09-15T15:44:26.706Z,2.33
2022-09-15T15:46:01.715Z,2.13
2022-09-15T15:47:37.803Z,2.50
2022-09-15T15:49:13.201Z,2.20
2022-09-15T15:50:46.114Z,2.30
2022-09-15T15:52:18.918Z,2.30
2022-09-15T15:53:51.621Z,2.50
2022-09-15T15:55:26.694Z,2.40
2022-09-15T15:57:21.175Z,2.20
2022-09-15T15:58:53.846Z,2.07
2022-09-15T16:00:33.310Z,2.30
2022-09-15T16:02:11.755Z,1.97
2022-09-15T16:03:45.821Z,2.43
2022-09-15T16:05:19.232Z,2.40
2022-09-15T16:06:52.661Z,2.53
2022-09-15T16:08:31.479Z,2.30
2022-09-15T16:10:03.782Z,2.30
2022-09-15T16:11:36.664Z,2.23
2022-09-15T16:13:13.982Z,2.10
2022-09-15T16:14:46.667Z,2.50
2022-09-15T16:16:21.933Z,2.37
2022-09-15T16:17:54.688Z,2.27
2022-09-15T16:19:28.835Z,2.47
2022-09-15T16:21:01.502Z,2.30
2022-09-15T16:22:34.658Z,2.50
2022-09-15T16:24:12.388Z,2.40
2022-09-15T16:25:49.661Z,2.10
2022-09-15T16:27:22.340Z,2.30
2022-09-15T16:28:55.015Z,2.10
2022-09-15T16:30:27.762Z,2.73
2022-09-15T16:32:00.677Z,2.53
2022-09-15T16:33:37.881Z,2.20
2022-09-15T16:35:34.545Z,2.30
2022-09-15T16:37:07.964Z,2.50
2022-09-15T16:38:41.297Z,2.20
2022-09-15T16:40:14.215Z,2.47
2022-09-15T16:41:47.012Z,2.30
2022-09-15T16:43:21.899Z,2.47
2022-09-15T16:44:54.594Z,2.57
2022-09-15T16:46:27.328Z,2.50
2022-09-15T16:48:00.448Z,2.53
2022-09-15T16:49:37.272Z,2.60
2022-09-15T16:51:25.244Z,2.40
2022-09-15T16:53:01.314Z,2.20
2022-09-15T16:54:33.984Z,2.50
2022-09-15T16:56:08.173Z,2.50
2022-09-15T16:57:41.109Z,2.60
2022-09-15T16:59:14.200Z,2.60
2022-09-15T17:00:49.009Z,2.37
2022-09-15T17:02:22.319Z,2.77
2022-09-15T17:03:55.584Z,2.50
2022-09-15T17:05:29.704Z,2.80
2022-09-15T17:07:03.724Z,2.50
2022-09-15T17:08:36.421Z,2.30
2022-09-15T17:10:09.743Z,2.30
2022-09-15T17:11:42.667Z,2.23
2022-09-15T17:13:18.002Z,2.50
2022-09-15T17:14:50.669Z,2.30
2022-09-15T17:16:23.399Z,2.30
2022-09-15T17:17:56.866Z,2.50
2022-09-15T17:19:29.526Z,2.10
2022-09-15T17:21:02.233Z,2.40
2022-09-15T17:22:35.311Z,2.20
2022-09-15T17:24:10.342Z,2.37
2022-09-15T17:25:48.859Z,2.30
2022-09-15T17:27:21.534Z,2.57
2022-09-15T17:28:55.409Z,2.17
2022-09-15T17:30:30.794Z,2.50
2022-09-15T17:32:03.601Z,2.27
2022-09-15T17:33:36.371Z,2.33
2022-09-15T17:35:20.927Z,2.80
2022-09-15T17:36:53.629Z,2.30
2022-09-15T17:38:27.824Z,2.47
2022-09-15T17:40:01.063Z,2.20
2022-09-15T17:41:34.681Z,2.30
2022-09-15T17:43:13.294Z,2.43
2022-09-15T17:44:46.294Z,2.57
2022-09-15T17:46:19.058Z,2.83
2022-09-15T17:47:51.466Z,2.47
2022-09-15T17:49:24.176Z,2.60
2022-09-15T17:50:57.098Z,2.60
2022-09-15T17:52:28.900Z,2.53
2022-09-15T17:54:02.942Z,3.00
2022-09-15T17:55:35.830Z,2.80
2022-09-15T17:57:08.501Z,2.57
2022-09-15T17:58:41.783Z,2.87
2022-09-15T18:00:15.716Z,2.60
2022-09-15T18:01:48.348Z,2.43
2022-09-15T18:03:24.821Z,2.60
2022-09-15T18:04:58.194Z,2.50
2022-09-15T18:06:30.851Z,2.57
2022-09-15T18:08:05.983Z,2.70
2022-09-15T18:09:40.031Z,2.70
2022-09-15T18:11:15.502Z,2.70
2022-09-15T18:12:50.125Z,2.70
2022-09-15T18:14:25.045Z,2.37
2022-09-15T18:15:58.349Z,2.47
2022-09-15T18:17:31.050Z,3.10
2022-09-15T18:19:03.948Z,3.00
2022-09-15T18:20:37.217Z,3.03
2022-09-15T18:22:11.555Z,3.10
2022-09-15T18:23:45.086Z,3.10
2022-09-15T18:25:24.445Z,3.03
2022-09-15T18:26:57.118Z,3.30
2022-09-15T18:28:29.820Z,3.57
2022-09-15T18:30:02.517Z,3.50
2022-09-15T18:31:35.228Z,3.47
2022-09-15T18:33:08.895Z,3.50
2022-09-15T18:34:41.651Z,3.27
2022-09-15T18:36:14.317Z,3.03
2022-09-15T18:37:48.009Z,3.40
2022-09-15T18:39:21.202Z,3.20
2022-09-15T18:40:57.415Z,3.30
2022-09-15T18:42:31.932Z,3.30
2022-09-15T18:44:04.896Z,3.50
2022-09-15T18:45:37.560Z,3.20
2022-09-15T18:47:10.367Z,3.20
2022-09-15T18:48:43.073Z,3.17
2022-09-15T18:50:18.923Z,3.00
2022-09-15T18:51:51.827Z,3.27
2022-09-15T18:53:24.941Z,3.33
2022-09-15T18:54:59.333Z,2.40
2022-09-15T18:56:33.388Z,2.67
2022-09-15T18:58:06.110Z,2.80
2022-09-15T18:59:39.606Z,2.37
2022-09-15T19:01:12.535Z,2.27
2022-09-15T19:02:45.461Z,2.33
2022-09-15T19:04:18.222Z,2.43
2022-09-15T19:05:50.932Z,2.23
2022-09-15T19:07:28.190Z,2.50
2022-09-15T19:09:02.068Z,2.60
2022-09-15T19:10:34.785Z,2.50
2022-09-15T19:12:08.969Z,2.40
2022-09-15T19:13:41.702Z,2.47
2022-09-15T19:15:15.578Z,2.50
2022-09-15T19:16:57.612Z,2.37
2022-09-15T19:18:31.258Z,2.57
2022-09-15T19:20:06.485Z,2.40
2022-09-15T19:21:39.175Z,2.30
2022-09-15T19:23:11.873Z,2.13
2022-09-15T19:24:44.573Z,2.23
2022-09-15T19:26:17.743Z,1.80
2022-09-15T19:27:52.141Z,2.20
2022-09-15T19:29:24.972Z,2.20
2022-09-15T19:30:58.303Z,2.07
2022-09-15T19:32:33.791Z,2.00
2022-09-15T19:34:06.540Z,2.03
2022-09-15T19:35:42.680Z,1.90
2022-09-15T19:37:19.168Z,2.03
2022-09-15T19:38:51.912Z,2.30
2022-09-15T19:40:24.642Z,2.33
2022-09-15T19:41:57.494Z,2.40
2022-09-15T19:43:31.569Z,2.33
2022-09-15T19:45:04.479Z,2.20
2022-09-15T19:46:37.158Z,1.90
2022-09-15T19:48:09.933Z,2.20
2022-09-15T19:49:42.841Z,2.23
2022-09-15T19:51:15.905Z,2.17
2022-09-15T19:52:48.780Z,2.20
2022-09-15T19:54:21.762Z,2.00
2022-09-15T19:55:54.519Z,2.00
2022-09-15T19:57:27.526Z,2.30
2022-09-15T19:59:01.828Z,2.50
2022-09-15T20:00:34.564Z,2.10
2022-09-15T20:02:07.783Z,2.17
2022-09-15T20:03:40.617Z,1.87
2022-09-15T20:05:13.375Z,2.20
2022-09-15T20:06:46.322Z,2.20
2022-09-15T20:08:19.388Z,2.07
2022-09-15T20:09:53.416Z,1.70
2022-09-15T20:11:27.132Z,1.90
2022-09-15T20:12:59.852Z,2.20
2022-09-15T20:14:33.922Z,1.90
2022-09-15T20:16:08.045Z,2.20
2022-09-15T20:17:42.286Z,2.33
2022-09-15T20:19:15.061Z,1.90
2022-09-15T20:20:47.801Z,2.30
2022-09-15T20:22:20.491Z,2.17
2022-09-15T20:23:53.456Z,2.30
2022-09-15T20:25:26.186Z,2.20
2022-09-15T20:26:59.227Z,2.00
2022-09-15T20:28:32.192Z,2.17
2022-09-15T20:30:07.882Z,2.10
2022-09-15T20:31:40.820Z,2.20
2022-09-15T20:33:13.545Z,2.40
2022-09-15T20:34:48.751Z,2.17
2022-09-15T20:36:23.653Z,2.20
2022-09-15T20:37:56.378Z,2.20
2022-09-15T20:39:29.116Z,2.17
2022-09-15T20:41:02.631Z,2.00
2022-09-15T20:42:35.470Z,1.97
2022-09-15T20:44:09.972Z,2.07
2022-09-15T20:45:44.046Z,1.80
2022-09-15T20:47:16.901Z,2.13
2022-09-15T20:48:49.683Z,1.90
2022-09-15T20:50:22.408Z,1.80
2022-09-15T20:51:55.176Z,2.00
2022-09-15T20:53:27.857Z,2.50
2022-09-15T20:55:00.637Z,2.00
2022-09-15T20:56:35.377Z,1.90
2022-09-15T20:58:10.113Z,2.00
2022-09-15T20:59:42.801Z,1.90
2022-09-15T21:01:18.710Z,1.70
2022-09-15T21:02:52.586Z,1.70
2022-09-15T21:04:25.289Z,2.10
2022-09-15T21:06:01.245Z,1.70
2022-09-15T21:07:34.290Z,1.87
2022-09-15T21:09:07.979Z,1.73
2022-09-15T21:10:46.786Z,2.10
2022-09-15T21:12:19.488Z,2.10
2022-09-15T21:13:51.405Z,2.00
2022-09-15T21:15:24.116Z,1.70
2022-09-15T21:16:58.147Z,1.90
2022-09-15T21:18:33.224Z,1.80
2022-09-15T21:20:06.736Z,1.80
2022-09-15T21:21:39.210Z,1.80
2022-09-15T21:23:11.997Z,1.80
2022-09-15T21:24:44.656Z,1.97
2022-09-15T21:26:18.952Z,1.97
2022-09-15T21:27:50.684Z,1.73
2022-09-15T21:29:23.393Z,1.70